Terminal Aerodrome Forecast
Issued by NWS

Home | Current Version | Previous Version | Text Only | Print | Product List | Glossary Off
Versions: 1 2 3 4 5 6 7 8 9 10 11 12 13 14 15 16 17

307
FTUS43 KICT 231457 AAB
TAFRSL
TAF AMD
KRSL 231457Z 2315/2412 36013G22KT P6SM VCTS SCT030 BKN070CB
     FM231800 01018G26KT P6SM BKN100
     FM232300 36013KT P6SM FEW120
     FM240300 34005KT P6SM SKC=

USA.gov is the U.S. government's official web portal to all federal, state and local government web resources and services.